createdAt,value
2017-04-02T00:00:57.329Z,82.63
2017-04-02T00:01:58.759Z,82.86
2017-04-02T00:03:00.194Z,82.76
2017-04-02T00:04:01.629Z,82.72
2017-04-02T00:05:03.064Z,83.14
2017-04-02T00:06:04.489Z,83.34
2017-04-02T00:07:05.924Z,82.95
2017-04-02T00:08:07.363Z,83.05
2017-04-02T00:09:08.790Z,82.67
2017-04-02T00:10:10.217Z,82.67
2017-04-02T00:11:11.668Z,82.86
2017-04-02T00:12:13.097Z,82.95
2017-04-02T00:13:14.534Z,83.67
2017-04-02T00:14:15.959Z,83.67
2017-04-02T00:15:17.384Z,82.67
2017-04-02T00:16:18.822Z,82.67
2017-04-02T00:17:20.250Z,81.90
2017-04-02T00:18:21.681Z,82.67
2017-04-02T00:19:23.102Z,82.29
2017-04-02T00:20:24.535Z,82.09
2017-04-02T00:21:25.962Z,82.00
2017-04-02T00:22:27.393Z,82.29
2017-04-02T00:23:28.825Z,83.05
2017-04-02T00:24:30.256Z,82.29
2017-04-02T00:25:31.691Z,83.72
2017-04-02T00:26:33.111Z,83.34
2017-04-02T00:27:34.539Z,82.86
2017-04-02T00:28:35.976Z,83.53
2017-04-02T00:29:37.404Z,83.24
2017-04-02T00:30:38.834Z,83.29
2017-04-02T00:31:40.268Z,83.96
2017-04-02T00:32:41.701Z,83.81
2017-04-02T00:33:43.132Z,82.67
2017-04-02T00:34:44.558Z,82.91
2017-04-02T00:35:45.984Z,83.53
2017-04-02T00:36:47.413Z,82.38
2017-04-02T00:37:48.840Z,82.91
2017-04-02T00:38:50.271Z,82.86
2017-04-02T00:39:51.699Z,82.38
2017-04-02T00:40:53.128Z,83.20
2017-04-02T00:41:54.560Z,83.58
2017-04-02T00:42:55.988Z,83.67
2017-04-02T00:43:57.410Z,83.96
2017-04-02T00:44:58.841Z,84.20
2017-04-02T00:46:00.270Z,84.16
2017-04-02T00:47:01.712Z,83.48
2017-04-02T00:48:03.140Z,84.16
2017-04-02T00:49:05.290Z,83.29
2017-04-02T00:50:06.734Z,82.29
2017-04-02T00:51:08.165Z,82.72
2017-04-02T00:52:09.597Z,82.24
2017-04-02T00:53:11.025Z,82.43
2017-04-02T00:54:12.459Z,82.72
2017-04-02T00:55:13.894Z,82.63
2017-04-02T00:56:15.361Z,83.20
2017-04-02T00:57:16.790Z,83.20
2017-04-02T00:58:18.220Z,83.67
2017-04-02T00:59:19.653Z,83.87
2017-04-02T01:00:21.572Z,83.20
2017-04-02T01:01:23.020Z,83.67
2017-04-02T01:02:24.445Z,83.11
2017-04-02T01:03:25.871Z,83.29
2017-04-02T01:04:27.297Z,83.29
2017-04-02T01:05:28.729Z,82.82
2017-04-02T01:06:30.156Z,82.53
2017-04-02T01:07:31.594Z,82.63
2017-04-02T01:08:33.037Z,82.72
2017-04-02T01:09:34.465Z,82.15
2017-04-02T01:10:35.905Z,81.77
2017-04-02T01:11:37.326Z,81.20
2017-04-02T01:12:38.751Z,82.34
2017-04-02T01:13:40.859Z,82.82
2017-04-02T01:14:42.293Z,82.06
2017-04-02T01:15:43.722Z,82.34
2017-04-02T01:16:45.149Z,81.38
2017-04-02T01:17:46.579Z,81.04
2017-04-02T01:18:48.002Z,81.29
2017-04-02T01:19:49.445Z,81.01
2017-04-02T01:20:50.868Z,81.67
2017-04-02T01:21:52.857Z,81.67
2017-04-02T01:22:54.281Z,80.62
2017-04-02T01:23:55.713Z,80.91
2017-04-02T01:24:57.140Z,81.01
2017-04-02T01:25:58.576Z,80.81
2017-04-02T01:26:59.999Z,81.29
2017-04-02T01:28:02.039Z,81.29
2017-04-02T01:29:03.508Z,81.38
2017-04-02T01:30:04.934Z,81.29
2017-04-02T01:31:06.366Z,81.01
2017-04-02T01:32:07.819Z,80.91
2017-04-02T01:33:09.253Z,80.81
2017-04-02T01:34:10.685Z,80.43
2017-04-02T01:35:12.109Z,81.01
2017-04-02T01:36:13.622Z,80.81
2017-04-02T01:37:15.048Z,81.38
2017-04-02T01:38:16.473Z,81.20
2017-04-02T01:39:17.931Z,81.58
2017-04-02T01:40:19.364Z,81.48
2017-04-02T01:41:20.792Z,81.67
2017-04-02T01:42:22.220Z,81.58
2017-04-02T01:43:23.648Z,81.20
2017-04-02T01:44:25.110Z,80.81
2017-04-02T01:45:26.502Z,81.44
2017-04-02T01:46:27.924Z,82.43
2017-04-02T01:47:29.350Z,81.38
2017-04-02T01:48:30.780Z,80.33
2017-04-02T01:49:32.201Z,80.43
2017-04-02T01:50:33.631Z,80.33
2017-04-02T01:51:35.062Z,80.15
2017-04-02T01:52:36.492Z,80.24
2017-04-02T01:53:37.917Z,81.48
2017-04-02T01:54:39.348Z,80.53
2017-04-02T01:55:40.775Z,80.15
2017-04-02T01:56:42.205Z,80.15
2017-04-02T01:57:43.638Z,80.05
2017-04-02T01:58:45.060Z,79.28
2017-04-02T01:59:46.518Z,80.05
2017-04-02T02:00:47.915Z,81.25
2017-04-02T02:01:49.348Z,80.87
2017-04-02T02:02:50.773Z,81.58
2017-04-02T02:03:52.201Z,80.72
2017-04-02T02:04:53.629Z,81.44
2017-04-02T02:05:55.056Z,81.63
2017-04-02T02:06:56.479Z,81.77
2017-04-02T02:07:57.909Z,81.58
2017-04-02T02:08:59.335Z,81.48
2017-04-02T02:10:00.763Z,81.01
2017-04-02T02:11:02.192Z,81.25
2017-04-02T02:12:03.622Z,82.59
2017-04-02T02:13:05.050Z,82.53
2017-04-02T02:14:06.468Z,81.48
2017-04-02T02:15:07.894Z,81.96
2017-04-02T02:16:09.318Z,81.44
2017-04-02T02:17:10.750Z,81.73
2017-04-02T02:18:12.178Z,82.11
2017-04-02T02:19:13.610Z,82.20
2017-04-02T02:20:15.043Z,82.11
2017-04-02T02:21:16.475Z,81.67
2017-04-02T02:22:17.904Z,81.63
2017-04-02T02:23:19.327Z,82.11
2017-04-02T02:24:20.760Z,81.96
2017-04-02T02:25:22.185Z,81.20
2017-04-02T02:26:23.623Z,81.58
2017-04-02T02:27:25.045Z,81.15
2017-04-02T02:28:26.478Z,81.58
2017-04-02T02:29:27.907Z,81.29
2017-04-02T02:30:29.339Z,81.20
2017-04-02T02:31:30.757Z,80.81
2017-04-02T02:32:32.178Z,81.58
2017-04-02T02:33:33.607Z,82.15
2017-04-02T02:34:35.031Z,81.73
2017-04-02T02:35:36.461Z,82.11
2017-04-02T02:36:37.887Z,82.11
2017-04-02T02:37:39.308Z,81.73
2017-04-02T02:38:40.733Z,82.49
2017-04-02T02:39:42.164Z,83.54
2017-04-02T02:40:43.604Z,82.20
2017-04-02T02:41:45.022Z,82.06
2017-04-02T02:42:46.452Z,81.01
2017-04-02T02:43:47.882Z,81.54
2017-04-02T02:44:49.303Z,82.40
2017-04-02T02:45:50.727Z,81.92
2017-04-02T02:46:52.159Z,82.20
2017-04-02T02:47:53.586Z,82.20
2017-04-02T02:48:55.018Z,82.11
2017-04-02T02:49:56.439Z,82.59
2017-04-02T02:50:57.965Z,82.78
2017-04-02T02:51:59.394Z,82.59
2017-04-02T02:53:00.821Z,81.58
2017-04-02T02:54:02.824Z,82.30
2017-04-02T02:55:04.257Z,81.48
2017-04-02T02:56:05.685Z,82.30
2017-04-02T02:57:07.115Z,81.82
2017-04-02T02:58:08.546Z,81.35
2017-04-02T02:59:09.971Z,82.87
2017-04-02T03:00:11.397Z,82.01
2017-04-02T03:01:12.819Z,83.06
2017-04-02T03:02:14.241Z,83.06
2017-04-02T03:03:15.677Z,82.97
2017-04-02T03:04:17.104Z,82.68
2017-04-02T03:05:18.522Z,83.06
2017-04-02T03:06:19.965Z,82.78
2017-04-02T03:07:21.386Z,83.16
2017-04-02T03:08:22.812Z,82.78
2017-04-02T03:09:24.253Z,82.30
2017-04-02T03:10:25.678Z,82.11
2017-04-02T03:11:27.110Z,81.58
2017-04-02T03:12:28.546Z,82.11
2017-04-02T03:13:29.972Z,83.16
2017-04-02T03:14:31.394Z,83.73
2017-04-02T03:15:32.823Z,83.83
2017-04-02T03:16:34.255Z,83.83
2017-04-02T03:17:35.681Z,84.01
2017-04-02T03:18:37.110Z,84.11
2017-04-02T03:19:38.535Z,83.16
2017-04-02T03:20:39.960Z,84.11
2017-04-02T03:21:41.404Z,83.16
2017-04-02T03:22:42.831Z,82.72
2017-04-02T03:23:44.267Z,82.34
2017-04-02T03:24:46.635Z,82.15
2017-04-02T03:25:48.067Z,81.77
2017-04-02T03:26:49.515Z,81.58
2017-04-02T03:27:50.942Z,81.29
2017-04-02T03:28:52.376Z,81.77
2017-04-02T03:29:53.799Z,81.77
2017-04-02T03:30:55.290Z,82.20
2017-04-02T03:31:56.679Z,83.73
2017-04-02T03:32:58.099Z,83.54
2017-04-02T03:33:59.538Z,84.01
2017-04-02T03:35:00.994Z,83.92
2017-04-02T03:36:02.423Z,84.40
2017-04-02T03:37:03.853Z,84.59
2017-04-02T03:38:05.279Z,85.06
2017-04-02T03:39:06.701Z,84.20
2017-04-02T03:40:08.130Z,84.49
2017-04-02T03:41:09.557Z,84.59
2017-04-02T03:42:10.986Z,84.88
2017-04-02T03:43:12.414Z,84.01
2017-04-02T03:44:13.839Z,84.40
2017-04-02T03:45:15.269Z,85.12
2017-04-02T03:46:16.700Z,85.60
2017-04-02T03:47:18.133Z,85.97
2017-04-02T03:48:19.955Z,85.93
2017-04-02T03:49:21.378Z,85.21
2017-04-02T03:50:22.812Z,84.88
2017-04-02T03:51:24.239Z,85.35
2017-04-02T03:52:25.666Z,85.06
2017-04-02T03:53:27.107Z,84.78
2017-04-02T03:54:28.530Z,85.06
2017-04-02T03:55:29.957Z,84.01
2017-04-02T03:56:31.390Z,84.20
2017-04-02T03:57:32.816Z,84.59
2017-04-02T03:58:34.237Z,85.16
2017-04-02T03:59:35.664Z,85.06
2017-04-02T04:00:37.092Z,85.41
2017-04-02T04:01:38.522Z,85.60
2017-04-02T04:02:39.952Z,86.07
2017-04-02T04:03:41.376Z,85.97
2017-04-02T04:04:42.806Z,86.26
2017-04-02T04:05:44.229Z,85.97
2017-04-02T04:06:45.660Z,86.83
2017-04-02T04:07:47.090Z,86.65
2017-04-02T04:08:48.519Z,86.93
2017-04-02T04:09:49.954Z,86.83
2017-04-02T04:10:51.378Z,86.55
2017-04-02T04:11:52.812Z,86.74
2017-04-02T04:12:54.243Z,86.36
2017-04-02T04:13:55.668Z,85.16
2017-04-02T04:14:57.097Z,85.78
2017-04-02T04:15:58.535Z,85.78
2017-04-02T04:16:59.961Z,86.36
2017-04-02T04:18:01.388Z,86.36
2017-04-02T04:19:02.812Z,86.65
2017-04-02T04:20:04.244Z,86.07
2017-04-02T04:21:05.670Z,86.65
2017-04-02T04:22:07.096Z,86.65
2017-04-02T04:23:08.520Z,86.74
2017-04-02T04:24:09.977Z,85.50
2017-04-02T04:25:11.365Z,84.74
2017-04-02T04:26:12.811Z,84.88
2017-04-02T04:27:14.240Z,85.12
2017-04-02T04:28:15.685Z,85.60
2017-04-02T04:29:17.107Z,85.97
2017-04-02T04:30:18.531Z,86.55
2017-04-02T04:31:19.957Z,86.16
2017-04-02T04:32:21.934Z,86.26
2017-04-02T04:33:23.365Z,86.26
2017-04-02T04:34:24.786Z,86.26
2017-04-02T04:35:26.211Z,85.21
2017-04-02T04:36:27.699Z,85.41
2017-04-02T04:37:29.159Z,84.92
2017-04-02T04:38:30.583Z,85.06
2017-04-02T04:39:32.818Z,84.01
2017-04-02T04:40:34.250Z,84.11
2017-04-02T04:41:35.678Z,84.30
2017-04-02T04:42:37.114Z,84.11
2017-04-02T04:43:38.533Z,83.73
2017-04-02T04:44:39.951Z,83.35
2017-04-02T04:45:41.383Z,83.64
2017-04-02T04:46:42.810Z,84.01
2017-04-02T04:47:44.243Z,84.11
2017-04-02T04:48:45.668Z,84.49
2017-04-02T04:49:47.099Z,83.54
2017-04-02T04:50:48.523Z,84.01
2017-04-02T04:51:49.949Z,83.16
2017-04-02T04:52:51.376Z,82.68
2017-04-02T04:53:52.798Z,83.44
2017-04-02T04:54:54.224Z,84.64
2017-04-02T04:55:55.648Z,84.45
2017-04-02T04:56:57.080Z,84.92
2017-04-02T04:57:58.502Z,85.69
2017-04-02T04:58:59.930Z,85.06
2017-04-02T05:00:01.362Z,85.12
2017-04-02T05:01:02.791Z,85.12
2017-04-02T05:02:04.218Z,84.92
2017-04-02T05:03:05.649Z,84.64
2017-04-02T05:04:07.082Z,84.55
2017-04-02T05:05:08.509Z,83.64
2017-04-02T05:06:09.934Z,83.06
2017-04-02T05:07:11.362Z,82.68
2017-04-02T05:08:12.789Z,82.78
2017-04-02T05:09:14.216Z,82.49
2017-04-02T05:10:15.643Z,83.35
2017-04-02T05:11:17.073Z,82.97
2017-04-02T05:12:18.501Z,82.78
2017-04-02T05:13:19.929Z,82.87
2017-04-02T05:14:21.356Z,83.64
2017-04-02T05:15:22.777Z,83.88
2017-04-02T05:16:24.207Z,84.40
2017-04-02T05:17:25.635Z,84.07
2017-04-02T05:18:27.068Z,83.97
2017-04-02T05:19:28.497Z,84.36
2017-04-02T05:20:29.923Z,83.50
2017-04-02T05:21:31.351Z,83.21
2017-04-02T05:22:32.783Z,83.78
2017-04-02T05:23:34.217Z,82.78
2017-04-02T05:24:35.643Z,82.68
2017-04-02T05:25:37.082Z,82.68
2017-04-02T05:26:38.510Z,83.06
2017-04-02T05:27:39.945Z,82.49
2017-04-02T05:28:41.444Z,82.68
2017-04-02T05:29:42.867Z,82.11
2017-04-02T05:30:44.300Z,82.87
2017-04-02T05:31:45.726Z,82.01
2017-04-02T05:32:47.171Z,82.59
2017-04-02T05:33:48.606Z,82.40
2017-04-02T05:34:50.029Z,81.92
2017-04-02T05:35:51.547Z,81.54
2017-04-02T05:36:52.985Z,82.20
2017-04-02T05:37:54.429Z,81.82
2017-04-02T05:38:55.851Z,81.73
2017-04-02T05:39:57.289Z,81.92
2017-04-02T05:40:58.717Z,81.82
2017-04-02T05:42:00.151Z,82.30
2017-04-02T05:43:01.677Z,82.01
2017-04-02T05:44:03.133Z,81.92
2017-04-02T05:45:04.560Z,81.73
2017-04-02T05:46:06.023Z,81.01
2017-04-02T05:47:07.422Z,81.54
2017-04-02T05:48:09.437Z,81.63
2017-04-02T05:49:10.861Z,81.73
2017-04-02T05:50:12.305Z,81.06
2017-04-02T05:51:13.735Z,81.54
2017-04-02T05:52:15.166Z,80.62
2017-04-02T05:53:16.600Z,80.43
2017-04-02T05:54:18.030Z,80.72
2017-04-02T05:55:19.462Z,81.20
2017-04-02T05:56:20.898Z,80.68
2017-04-02T05:57:22.331Z,80.62
2017-04-02T05:58:23.756Z,81.29
2017-04-02T05:59:25.196Z,80.15
2017-04-02T06:00:27.487Z,79.86
2017-04-02T06:01:28.922Z,79.77
2017-04-02T06:02:30.352Z,81.10
2017-04-02T06:03:31.783Z,80.43
2017-04-02T06:04:33.226Z,80.91
2017-04-02T06:05:34.660Z,79.96
2017-04-02T06:06:36.089Z,80.24
2017-04-02T06:07:37.528Z,80.72
2017-04-02T06:08:38.957Z,80.77
2017-04-02T06:09:40.387Z,81.20
2017-04-02T06:10:41.814Z,81.20
2017-04-02T06:11:43.246Z,81.29
2017-04-02T06:12:44.675Z,80.53
2017-04-02T06:13:46.107Z,80.24
2017-04-02T06:14:47.537Z,80.24
2017-04-02T06:15:48.973Z,81.20
2017-04-02T06:16:50.402Z,79.96
2017-04-02T06:17:51.833Z,80.62
2017-04-02T06:18:53.260Z,80.15
2017-04-02T06:19:54.696Z,80.91
2017-04-02T06:20:56.133Z,81.20
2017-04-02T06:21:57.558Z,80.43
2017-04-02T06:22:58.992Z,81.01
2017-04-02T06:24:00.420Z,81.48
2017-04-02T06:25:01.853Z,80.91
2017-04-02T06:26:03.290Z,80.15
2017-04-02T06:27:04.722Z,79.67
2017-04-02T06:28:06.163Z,81.01
2017-04-02T06:29:07.598Z,81.04
2017-04-02T06:30:09.034Z,79.28
2017-04-02T06:31:10.459Z,79.71
2017-04-02T06:32:11.960Z,80.28
2017-04-02T06:33:13.951Z,78.75
2017-04-02T06:34:15.384Z,79.77
2017-04-02T06:35:17.366Z,79.61
2017-04-02T06:36:18.803Z,79.52
2017-04-02T06:37:20.975Z,81.01
2017-04-02T06:38:22.412Z,79.99
2017-04-02T06:39:23.849Z,79.71
2017-04-02T06:40:26.002Z,79.23
2017-04-02T06:41:27.435Z,80.09
2017-04-02T06:42:28.875Z,79.23
2017-04-02T06:43:30.864Z,79.04
2017-04-02T06:44:33.213Z,78.75
2017-04-02T06:45:35.399Z,78.94
2017-04-02T06:46:36.830Z,79.04
2017-04-02T06:47:43.132Z,79.67
2017-04-02T06:48:45.249Z,78.85
2017-04-02T06:49:46.682Z,79.43
2017-04-02T06:50:49.046Z,79.71
2017-04-02T06:51:50.479Z,80.28
2017-04-02T06:52:51.911Z,79.52
2017-04-02T06:53:53.341Z,78.85
2017-04-02T06:54:54.780Z,79.43
2017-04-02T06:55:56.205Z,79.14
2017-04-02T06:56:57.638Z,79.27
2017-04-02T06:57:59.085Z,77.99
2017-04-02T06:59:00.514Z,77.99
2017-04-02T07:00:02.696Z,78.37
2017-04-02T07:01:04.132Z,77.80
2017-04-02T07:02:05.571Z,79.14
2017-04-02T07:03:07.005Z,80.47
2017-04-02T07:04:08.447Z,79.57
2017-04-02T07:05:10.850Z,80.15
2017-04-02T07:06:12.268Z,79.43
2017-04-02T07:07:13.706Z,79.43
2017-04-02T07:08:15.144Z,78.94
2017-04-02T07:11:51.639Z,75.07
2017-04-02T07:12:53.067Z,77.61
2017-04-02T07:13:54.502Z,79.71
2017-04-02T07:14:55.933Z,80.09
2017-04-02T07:15:57.407Z,79.80
2017-04-02T07:16:58.832Z,79.71
2017-04-02T07:18:00.276Z,79.71
2017-04-02T07:19:01.804Z,80.19
2017-04-02T07:20:03.263Z,80.76
2017-04-02T07:21:04.697Z,80.95
2017-04-02T07:22:06.138Z,79.52
2017-04-02T07:23:07.570Z,79.71
2017-04-02T07:24:09.001Z,80.28
2017-04-02T07:25:10.437Z,80.28
2017-04-02T07:26:11.955Z,80.76
2017-04-02T07:27:13.385Z,79.99
2017-04-02T07:28:14.820Z,81.01
2017-04-02T07:29:16.251Z,81.86
2017-04-02T07:30:17.694Z,81.71
2017-04-02T07:31:19.201Z,81.52
2017-04-02T07:32:20.635Z,79.80
2017-04-02T07:33:22.058Z,80.28
2017-04-02T07:34:23.500Z,80.81
2017-04-02T07:35:24.930Z,81.29
2017-04-02T07:36:26.367Z,81.77
2017-04-02T07:37:27.795Z,81.52
2017-04-02T07:38:29.239Z,81.01
2017-04-02T07:39:30.684Z,81.86
2017-04-02T07:40:32.110Z,81.67
2017-04-02T07:41:33.545Z,81.90
2017-04-02T07:42:34.993Z,81.62
2017-04-02T07:43:36.422Z,81.81
2017-04-02T07:44:37.865Z,82.48
2017-04-02T07:45:39.348Z,81.43
2017-04-02T07:46:40.782Z,81.04
2017-04-02T07:47:42.221Z,81.62
2017-04-02T07:48:43.710Z,80.85
2017-04-02T07:49:45.136Z,81.43
2017-04-02T07:50:46.573Z,80.28
2017-04-02T07:51:48.014Z,79.23
2017-04-02T07:52:49.458Z,79.99
2017-04-02T07:53:50.931Z,79.61
2017-04-02T07:54:52.404Z,79.23
2017-04-02T07:55:53.840Z,79.23
2017-04-02T07:56:55.268Z,78.94
2017-04-02T07:57:56.703Z,79.14
2017-04-02T07:58:58.137Z,79.08
2017-04-02T07:59:59.588Z,79.56
2017-04-02T08:01:01.019Z,78.79
2017-04-02T08:02:02.453Z,78.94
2017-04-02T08:03:03.940Z,79.23
2017-04-02T08:04:05.370Z,79.71
2017-04-02T08:05:07.654Z,79.52
2017-04-02T08:06:09.233Z,79.90
2017-04-02T08:07:10.672Z,79.56
2017-04-02T08:08:12.105Z,79.90
2017-04-02T08:09:13.545Z,80.28
2017-04-02T08:10:14.985Z,79.56
2017-04-02T08:11:16.415Z,79.75
2017-04-02T08:12:17.939Z,79.61
2017-04-02T08:13:19.382Z,79.04
2017-04-02T08:14:20.829Z,79.14
2017-04-02T08:15:22.261Z,79.46
2017-04-02T08:16:23.710Z,79.65
2017-04-02T08:17:25.143Z,78.79
2017-04-02T08:18:26.576Z,78.60
2017-04-02T08:19:28.008Z,78.03
2017-04-02T08:20:29.443Z,78.31
2017-04-02T08:21:30.879Z,77.94
2017-04-02T08:22:32.309Z,77.74
2017-04-02T08:23:33.749Z,77.84
2017-04-02T08:24:35.176Z,78.31
2017-04-02T08:25:36.620Z,77.55
2017-04-02T08:26:38.059Z,76.73
2017-04-02T08:27:39.490Z,75.30
2017-04-02T08:28:40.926Z,76.45
2017-04-02T08:29:42.947Z,76.06
2017-04-02T08:30:44.375Z,75.83
2017-04-02T08:31:45.806Z,76.16
2017-04-02T08:32:47.238Z,75.10
2017-04-02T08:33:48.674Z,75.01
2017-04-02T08:34:50.102Z,74.63
2017-04-02T08:35:51.540Z,75.01
2017-04-02T08:36:52.975Z,74.82
2017-04-02T08:37:54.404Z,75.78
2017-04-02T08:38:55.843Z,74.63
2017-04-02T08:39:57.283Z,74.73
2017-04-02T08:40:59.940Z,73.86
2017-04-02T08:42:01.404Z,74.63
2017-04-02T08:43:03.618Z,75.30
2017-04-02T08:44:08.387Z,75.14
2017-04-02T08:45:09.653Z,74.57
2017-04-02T08:46:11.093Z,74.85
2017-04-02T08:47:12.538Z,74.57
2017-04-02T08:48:14.100Z,74.85
2017-04-02T08:49:16.012Z,74.48
2017-04-02T08:50:17.420Z,74.32
2017-04-02T08:51:18.847Z,73.90
2017-04-02T08:52:20.283Z,73.71
2017-04-02T08:53:21.764Z,73.23
2017-04-02T08:54:23.192Z,73.17
2017-04-02T08:55:24.631Z,72.12
2017-04-02T08:56:26.063Z,71.83
2017-04-02T08:57:27.514Z,71.45
2017-04-02T08:58:28.953Z,70.68
2017-04-02T08:59:30.400Z,71.07
2017-04-02T09:00:31.837Z,70.62
2017-04-02T09:01:33.293Z,70.40
2017-04-02T09:02:34.932Z,72.41
2017-04-02T09:03:36.363Z,72.12
2017-04-02T09:04:39.255Z,70.30
2017-04-02T09:05:40.814Z,70.21
2017-04-02T09:06:43.649Z,70.50
2017-04-02T09:07:45.090Z,70.59
2017-04-02T09:08:46.537Z,70.01
2017-04-02T09:09:47.969Z,71.07
2017-04-02T09:10:49.585Z,69.82
2017-04-02T09:11:51.022Z,70.94
2017-04-02T09:12:52.563Z,72.08
2017-04-02T09:13:54.344Z,71.61
2017-04-02T09:14:55.789Z,71.03
2017-04-02T09:15:57.237Z,69.64
2017-04-02T09:16:59.657Z,70.50
2017-04-02T09:18:01.093Z,69.57
2017-04-02T09:19:02.522Z,69.19
2017-04-02T09:20:03.960Z,70.34
2017-04-02T09:21:05.393Z,70.53
2017-04-02T09:22:06.825Z,67.21
2017-04-02T09:23:08.254Z,66.22
2017-04-02T09:24:09.701Z,66.22
2017-04-02T09:25:11.136Z,66.25
2017-04-02T09:26:12.566Z,67.02
2017-04-02T09:27:14.015Z,66.74
2017-04-02T09:28:15.446Z,65.88
2017-04-02T09:29:16.881Z,65.30
2017-04-02T09:30:18.317Z,64.82
2017-04-02T09:31:19.850Z,66.35
2017-04-02T09:32:21.283Z,65.88
2017-04-02T09:33:22.715Z,65.97
2017-04-02T09:34:24.162Z,66.25
2017-04-02T09:35:25.605Z,66.48
2017-04-02T09:36:27.034Z,66.38
2017-04-02T09:37:28.472Z,64.82
2017-04-02T09:38:29.958Z,64.92
2017-04-02T09:39:31.400Z,64.63
2017-04-02T09:40:32.832Z,64.05
2017-04-02T09:41:34.267Z,63.70
2017-04-02T09:42:35.698Z,63.60
2017-04-02T09:43:37.138Z,64.63
2017-04-02T09:44:38.582Z,62.14
2017-04-02T09:45:40.016Z,63.60
2017-04-02T09:46:41.456Z,63.00
2017-04-02T09:47:42.889Z,63.39
2017-04-02T09:48:44.325Z,62.74
2017-04-02T09:49:45.767Z,62.90
2017-04-02T09:50:47.206Z,63.86
2017-04-02T09:51:48.649Z,63.00
2017-04-02T09:52:50.089Z,64.40
2017-04-02T09:53:51.541Z,65.08
2017-04-02T09:54:52.979Z,66.32
2017-04-02T09:55:54.416Z,65.45
2017-04-02T09:56:55.853Z,64.40
2017-04-02T09:57:57.363Z,65.08
2017-04-02T09:58:58.797Z,63.67
2017-04-02T10:00:00.255Z,62.97
2017-04-02T10:01:01.703Z,65.26
2017-04-02T10:02:03.141Z,65.17
2017-04-02T10:03:04.589Z,62.90
2017-04-02T10:04:06.034Z,62.46
2017-04-02T10:05:07.466Z,61.69
2017-04-02T10:06:08.907Z,61.50
2017-04-02T10:07:10.345Z,60.93
2017-04-02T10:08:11.788Z,60.44
2017-04-02T10:09:13.228Z,61.11
2017-04-02T10:10:14.673Z,61.50
2017-04-02T10:11:16.103Z,61.69
2017-04-02T10:12:17.587Z,61.60
2017-04-02T10:13:19.028Z,61.50
2017-04-02T10:14:20.461Z,61.88
2017-04-02T10:15:21.897Z,61.21
2017-04-02T10:16:23.411Z,61.53
2017-04-02T10:17:24.850Z,59.61
2017-04-02T10:18:26.288Z,57.76
2017-04-02T10:19:27.720Z,58.65
2017-04-02T10:20:29.155Z,60.09
2017-04-02T10:21:30.592Z,57.76
2017-04-02T10:22:32.030Z,56.81
2017-04-02T10:23:33.469Z,57.03
2017-04-02T10:24:35.558Z,57.50
2017-04-02T10:25:36.999Z,56.93
2017-04-02T10:26:38.428Z,59.06
2017-04-02T10:27:39.869Z,58.37
2017-04-02T10:28:41.320Z,56.83
2017-04-02T10:29:42.744Z,57.67
2017-04-02T10:30:44.189Z,56.90
2017-04-02T10:31:45.622Z,58.17
2017-04-02T10:32:47.053Z,58.37
2017-04-02T10:33:48.489Z,58.65
2017-04-02T10:34:49.936Z,57.12
2017-04-02T10:35:51.374Z,56.04
2017-04-02T10:36:52.814Z,57.12
2017-04-02T10:37:54.248Z,55.78
2017-04-02T10:38:55.690Z,55.04
2017-04-02T10:39:57.127Z,55.04
2017-04-02T10:40:58.571Z,53.53
2017-04-02T10:42:00.012Z,53.79
2017-04-02T10:43:01.460Z,55.49
2017-04-02T10:44:02.897Z,53.12
2017-04-02T10:45:04.341Z,54.05
2017-04-02T10:46:05.784Z,56.07
2017-04-02T10:47:07.218Z,56.04
2017-04-02T10:48:08.656Z,56.71
2017-04-02T10:49:10.099Z,56.61
2017-04-02T10:50:11.539Z,54.12
2017-04-02T10:51:12.991Z,54.41
2017-04-02T10:52:14.424Z,54.12
2017-04-02T10:53:15.895Z,53.26
2017-04-02T10:54:17.331Z,54.60
2017-04-02T10:55:18.771Z,55.27
2017-04-02T10:56:20.209Z,56.71
2017-04-02T10:57:21.635Z,53.26
2017-04-02T10:58:23.074Z,53.45
2017-04-02T10:59:24.723Z,53.96
2017-04-02T11:00:27.153Z,54.34
2017-04-02T11:01:29.547Z,55.49
2017-04-02T11:02:30.872Z,55.90
2017-04-02T11:03:32.345Z,55.71
2017-04-02T11:04:33.768Z,53.99
2017-04-02T11:05:35.200Z,54.63
2017-04-02T11:06:36.654Z,55.46
2017-04-02T11:07:38.088Z,55.75
2017-04-02T11:08:39.524Z,54.96
2017-04-02T11:09:41.518Z,54.19
2017-04-02T11:10:42.961Z,56.30
2017-04-02T11:11:44.412Z,56.49
2017-04-02T11:12:45.846Z,56.01
2017-04-02T11:13:47.285Z,57.45
2017-04-02T11:14:48.722Z,57.51
2017-04-02T11:15:50.152Z,58.09
2017-04-02T11:16:51.596Z,56.37
2017-04-02T11:17:53.041Z,56.17
2017-04-02T11:18:54.467Z,56.01
2017-04-02T11:19:55.906Z,55.65
2017-04-02T11:20:57.349Z,55.30
2017-04-02T11:21:58.797Z,52.23
2017-04-02T11:23:00.244Z,50.60
2017-04-02T11:24:01.677Z,50.41
2017-04-02T11:25:03.106Z,49.55
2017-04-02T11:26:04.553Z,49.76
2017-04-02T11:27:05.995Z,50.08
2017-04-02T11:28:07.427Z,51.49
2017-04-02T11:29:09.510Z,51.40
2017-04-02T11:30:10.945Z,50.94
2017-04-02T11:31:12.386Z,50.37
2017-04-02T11:32:14.660Z,50.46
2017-04-02T11:33:16.090Z,49.24
2017-04-02T11:34:17.529Z,46.26
2017-04-02T11:35:18.970Z,47.22
2017-04-02T11:36:20.410Z,46.79
2017-04-02T11:37:21.850Z,47.53
2017-04-02T11:38:23.282Z,44.84
2017-04-02T11:39:24.724Z,43.88
2017-04-02T11:40:26.171Z,44.08
2017-04-02T11:41:27.609Z,43.79
2017-04-02T11:42:29.047Z,43.60
2017-04-02T11:43:30.477Z,42.64
2017-04-02T11:44:31.912Z,42.64
2017-04-02T11:45:33.348Z,43.50
2017-04-02T11:46:34.789Z,42.83
2017-04-02T11:47:36.231Z,43.71
2017-04-02T11:48:37.665Z,45.92
2017-04-02T11:49:39.108Z,45.14
2017-04-02T11:50:40.545Z,45.15
2017-04-02T11:51:41.987Z,44.89
2017-04-02T11:52:43.411Z,45.87
2017-04-02T11:53:44.860Z,43.11
2017-04-02T11:54:46.293Z,43.28
2017-04-02T11:55:47.737Z,42.10
2017-04-02T11:56:49.175Z,41.41
2017-04-02T11:57:50.607Z,43.45
2017-04-02T11:58:52.047Z,43.23
2017-04-02T11:59:53.487Z,44.00
2017-04-02T12:00:54.930Z,44.77
2017-04-02T12:01:56.367Z,44.96
2017-04-02T12:02:57.830Z,42.85
2017-04-02T12:03:59.272Z,43.62
2017-04-02T12:05:00.719Z,42.94
2017-04-02T12:06:02.161Z,43.04
2017-04-02T12:07:03.598Z,43.50
2017-04-02T12:08:05.032Z,43.21
2017-04-02T12:09:06.476Z,43.40
2017-04-02T12:10:07.926Z,44.27
2017-04-02T12:11:09.383Z,45.81
2017-04-02T12:12:10.840Z,42.54
2017-04-02T12:13:12.291Z,44.37
2017-04-02T12:14:13.726Z,44.08
2017-04-02T12:15:15.171Z,44.27
2017-04-02T12:16:16.608Z,43.23
2017-04-02T12:17:18.040Z,42.97
2017-04-02T12:18:19.483Z,42.44
2017-04-02T12:19:20.926Z,43.88
2017-04-02T12:20:22.357Z,43.50
2017-04-02T12:21:23.812Z,42.93
2017-04-02T12:22:25.242Z,43.02
2017-04-02T12:23:26.686Z,42.47
2017-04-02T12:24:28.130Z,43.35
2017-04-02T12:25:29.565Z,42.94
2017-04-02T12:26:31.014Z,43.04
2017-04-02T12:27:32.447Z,42.66
2017-04-02T12:28:33.879Z,41.41
2017-04-02T12:29:35.341Z,41.22
2017-04-02T12:30:36.779Z,42.16
2017-04-02T12:31:38.215Z,43.12
2017-04-02T12:32:39.651Z,42.73
2017-04-02T12:33:41.096Z,43.67
2017-04-02T12:34:42.539Z,43.38
2017-04-02T12:35:43.978Z,42.98
2017-04-02T12:36:47.667Z,42.90
2017-04-02T12:37:53.604Z,43.19
2017-04-02T12:38:54.776Z,42.50
2017-04-02T12:39:56.226Z,42.50
2017-04-02T12:40:57.668Z,43.57
2017-04-02T12:41:59.247Z,41.17
2017-04-02T12:43:00.677Z,42.52
2017-04-02T12:44:02.111Z,43.00
2017-04-02T12:45:03.545Z,44.06
2017-04-02T12:46:04.991Z,43.60
2017-04-02T12:47:06.426Z,43.43
2017-04-02T12:48:07.867Z,42.54
2017-04-02T12:49:09.307Z,40.31
2017-04-02T12:50:10.735Z,42.21
2017-04-02T12:51:12.177Z,43.74
2017-04-02T12:52:13.619Z,42.60
2017-04-02T12:53:15.052Z,43.53
2017-04-02T12:54:16.500Z,44.11
2017-04-02T12:55:17.936Z,43.73
2017-04-02T12:56:19.382Z,44.23
2017-04-02T12:57:20.820Z,43.44
2017-04-02T12:58:22.257Z,43.53
2017-04-02T12:59:23.691Z,41.33
2017-04-02T13:00:25.151Z,43.73
2017-04-02T13:01:26.590Z,43.53
2017-04-02T13:02:28.027Z,41.73
2017-04-02T13:03:29.473Z,42.60
2017-04-02T13:04:30.906Z,42.93
2017-04-02T13:05:32.336Z,40.62
2017-04-02T13:06:33.783Z,40.64
2017-04-02T13:07:35.328Z,39.29
2017-04-02T13:08:36.770Z,36.62
2017-04-02T13:09:38.207Z,37.76
2017-04-02T13:10:39.648Z,37.57
2017-04-02T13:11:41.094Z,37.97
2017-04-02T13:12:42.537Z,35.18
2017-04-02T13:13:43.967Z,34.89
2017-04-02T13:14:45.412Z,36.43